KPRO/PRO METAR and TAF weather

Enter ICAO airport designator
Station Type Date Time Source
KPRO METAR 2019/08/22 20:15 UTC NOAA

KPRO 222015Z AUTO 10005KT 10SM SCT040 25/16 A3004 RMK AO2 T02540156


Station Type Date Time Source
KPRO Decoded METAR 2019/08/22 20:15 UTC NOAA

Station name not available
Aug 22, 2019 - 04:15 PM EDT / 2019.08.22 2015 UTC
Wind: from the E (100 degrees) at 6 MPH (5 KT):0
Visibility: 10 mile(s):0
Sky conditions: partly cloudy
Temperature: 77.7 F (25.4 C)
Dew Point: 60.1 F (15.6 C)
Relative Humidity: 54%
Pressure (altimeter): 30.04 in. Hg (1017 hPa)
ob: KPRO 222015Z AUTO 10005KT 10SM SCT040 25/16 A3004 RMK AO2 T02540156
cycle: 20

Station Type Date Time Source
KPRO TAF UTC NOAA

Error!

Example: see airport list